Aviation Digital Data Service (ADDS)

Output produced by METARs form (1447 UTC 22 April 2019)
found at http://www.aviationweather.gov/metar/data/
 
METAR text: CYHM 221400Z 23003KT 15SM FEW030 SCT100 OVC150 08/07 A3026 RMK SC2AC2AC4 SLP252
Conditions at: CYHM (HAMILTON AIRPORT, ON, CA) observed 1400 UTC 22 April 2019
Temperature: 8.0°C (46°F)
Dewpoint: 7.0°C (45°F) [RH = 93%]
Pressure (altimeter): 30.26 inches Hg (1024.8 mb)
[Sea-level pressure: 1025.2 mb]
Winds: from the SW (230 degrees) at 3 MPH (3 knots; 1.5 m/s)
Visibility: 15 miles (24 km)
Ceiling: 15000 feet AGL
Clouds: few clouds at 3000 feet AGL
scattered clouds at 10000 feet AGL
overcast cloud deck at 15000 feet AGL
Weather: no significant weather observed at this time

METAR text: CYHM 221300Z 24004KT 10SM FEW030 SCT095 BKN140 06/06 A3024 RMK SC2AC2AC3 SLP249
Conditions at: CYHM (HAMILTON AIRPORT, ON, CA) observed 1300 UTC 22 April 2019
Temperature: 6.0°C (43°F)
Dewpoint: 6.0°C (43°F) [RH = 100%]
Pressure (altimeter): 30.24 inches Hg (1024.1 mb)
[Sea-level pressure: 1024.9 mb]
Winds: from the WSW (240 degrees) at 5 MPH (4 knots; 2.1 m/s)
Visibility: 10 or more miles (16+ km)
Ceiling: 14000 feet AGL
Clouds: few clouds at 3000 feet AGL
scattered clouds at 9500 feet AGL
broken clouds at 14000 feet AGL
Weather: no significant weather observed at this time

METAR text: CYHM 221200Z 18004KT 15SM FEW030 BKN110 BKN120 05/05 A3024 RMK SC2AC3AC2 SLP249
Conditions at: CYHM (HAMILTON AIRPORT, ON, CA) observed 1200 UTC 22 April 2019
Temperature: 5.0°C (41°F)
Dewpoint: 5.0°C (41°F) [RH = 100%]
Pressure (altimeter): 30.24 inches Hg (1024.1 mb)
[Sea-level pressure: 1024.9 mb]
Winds: from the S (180 degrees) at 5 MPH (4 knots; 2.1 m/s)
Visibility: 15 miles (24 km)
Ceiling: 11000 feet AGL
Clouds: few clouds at 3000 feet AGL
broken clouds at 11000 feet AGL
broken clouds at 12000 feet AGL
Weather: no significant weather observed at this time

METAR text: CYHM 221100Z 20003KT 8SM FEW035 BKN110 BKN130 05/05 A3023 RMK SC2AC4AC1 SLP243
Conditions at: CYHM (HAMILTON AIRPORT, ON, CA) observed 1100 UTC 22 April 2019
Temperature: 5.0°C (41°F)
Dewpoint: 5.0°C (41°F) [RH = 100%]
Pressure (altimeter): 30.23 inches Hg (1023.8 mb)
[Sea-level pressure: 1024.3 mb]
Winds: from the SSW (200 degrees) at 3 MPH (3 knots; 1.5 m/s)
Visibility: 8 miles (13 km)
Ceiling: 11000 feet AGL
Clouds: few clouds at 3500 feet AGL
broken clouds at 11000 feet AGL
broken clouds at 13000 feet AGL
Weather: no significant weather observed at this time

METAR text: CYHM 221000Z 17005KT 15SM BKN110 BKN120 05/05 A3021 RMK AC5AC2 SLP236
Conditions at: CYHM (HAMILTON AIRPORT, ON, CA) observed 1000 UTC 22 April 2019
Temperature: 5.0°C (41°F)
Dewpoint: 5.0°C (41°F) [RH = 100%]
Pressure (altimeter): 30.21 inches Hg (1023.1 mb)
[Sea-level pressure: 1023.6 mb]
Winds: from the S (170 degrees) at 6 MPH (5 knots; 2.6 m/s)
Visibility: 15 miles (24 km)
Ceiling: 11000 feet AGL
Clouds: broken clouds at 11000 feet AGL
broken clouds at 12000 feet AGL
Weather: no significant weather observed at this time

METAR text: CYHM 220900Z 18004KT 15SM R12/4500VP6000FT/U FEW250 04/04 A3019 RMK CI1 SLP231
Conditions at: CYHM (HAMILTON AIRPORT, ON, CA) observed 0900 UTC 22 April 2019
Temperature: 4.0°C (39°F)
Dewpoint: 4.0°C (39°F) [RH = 100%]
Pressure (altimeter): 30.19 inches Hg (1022.4 mb)
[Sea-level pressure: 1023.1 mb]
Winds: from the S (180 degrees) at 5 MPH (4 knots; 2.1 m/s)
Visibility: 15 miles (24 km)
Ceiling: at least 12,000 feet AGL
Clouds: few clouds at 25000 feet AGL
Weather: no significant weather observed at this time

METAR text: CYHM 220800Z 25005KT 15SM FEW250 05/05 A3018 RMK CI1 SLP226
Conditions at: CYHM (HAMILTON AIRPORT, ON, CA) observed 0800 UTC 22 April 2019
Temperature: 5.0°C (41°F)
Dewpoint: 5.0°C (41°F) [RH = 100%]
Pressure (altimeter): 30.18 inches Hg (1022.1 mb)
[Sea-level pressure: 1022.6 mb]
Winds: from the WSW (250 degrees) at 6 MPH (5 knots; 2.6 m/s)
Visibility: 15 miles (24 km)
Ceiling: at least 12,000 feet AGL
Clouds: few clouds at 25000 feet AGL
Weather: no significant weather observed at this time

METAR text: CYHM 220700Z 22004KT 15SM FEW032 FEW250 06/06 A3019 RMK SC1CI2 SC TR SLP229
Conditions at: CYHM (HAMILTON AIRPORT, ON, CA) observed 0700 UTC 22 April 2019
Temperature: 6.0°C (43°F)
Dewpoint: 6.0°C (43°F) [RH = 100%]
Pressure (altimeter): 30.19 inches Hg (1022.4 mb)
[Sea-level pressure: 1022.9 mb]
Winds: from the SW (220 degrees) at 5 MPH (4 knots; 2.1 m/s)
Visibility: 15 miles (24 km)
Ceiling: at least 12,000 feet AGL
Clouds: few clouds at 3200 feet AGL
few clouds at 25000 feet AGL
Weather: no significant weather observed at this time

METAR text: CYHM 220600Z 28009KT 15SM FEW032 07/07 A3019 RMK SC2 SLP229
Conditions at: CYHM (HAMILTON AIRPORT, ON, CA) observed 0600 UTC 22 April 2019
Temperature: 7.0°C (45°F)
Dewpoint: 7.0°C (45°F) [RH = 100%]
Pressure (altimeter): 30.19 inches Hg (1022.4 mb)
[Sea-level pressure: 1022.9 mb]
Winds: from the W (280 degrees) at 10 MPH (9 knots; 4.6 m/s)
Visibility: 15 miles (24 km)
Ceiling: at least 12,000 feet AGL
Clouds: few clouds at 3200 feet AGL
Weather: no significant weather observed at this time

METAR text: CYHM 220500Z 26004KT 15SM BKN032 07/07 A3019 RMK SC6 SLP231
Conditions at: CYHM (HAMILTON AIRPORT, ON, CA) observed 0500 UTC 22 April 2019
Temperature: 7.0°C (45°F)
Dewpoint: 7.0°C (45°F) [RH = 100%]
Pressure (altimeter): 30.19 inches Hg (1022.4 mb)
[Sea-level pressure: 1023.1 mb]
Winds: from the W (260 degrees) at 5 MPH (4 knots; 2.1 m/s)
Visibility: 15 miles (24 km)
Ceiling: 3200 feet AGL
Clouds: broken clouds at 3200 feet AGL
Weather: no significant weather observed at this time

METAR text: CYHM 220400Z 18006KT 15SM BKN031 OVC110 07/07 A3019 RMK SC7AC1 SLP230
Conditions at: CYHM (HAMILTON AIRPORT, ON, CA) observed 0400 UTC 22 April 2019
Temperature: 7.0°C (45°F)
Dewpoint: 7.0°C (45°F) [RH = 100%]
Pressure (altimeter): 30.19 inches Hg (1022.4 mb)
[Sea-level pressure: 1023.0 mb]
Winds: from the S (180 degrees) at 7 MPH (6 knots; 3.1 m/s)
Visibility: 15 miles (24 km)
Ceiling: 3100 feet AGL
Clouds: broken clouds at 3100 feet AGL
overcast cloud deck at 11000 feet AGL
Weather: no significant weather observed at this time

METAR text: CYHM 220300Z 18004KT 15SM FEW036 BKN110 08/07 A3018 RMK SC1ACC7 SC TR SLP225
Conditions at: CYHM (HAMILTON AIRPORT, ON, CA) observed 0300 UTC 22 April 2019
Temperature: 8.0°C (46°F)
Dewpoint: 7.0°C (45°F) [RH = 93%]
Pressure (altimeter): 30.18 inches Hg (1022.1 mb)
[Sea-level pressure: 1022.5 mb]
Winds: from the S (180 degrees) at 5 MPH (4 knots; 2.1 m/s)
Visibility: 15 miles (24 km)
Ceiling: 11000 feet AGL
Clouds: few clouds at 3600 feet AGL
broken clouds at 11000 feet AGL
Weather: no significant weather observed at this time

METAR text: CYHM 220200Z 22004KT 15SM FEW040 BKN110 08/07 A3016 RMK SC1AC6 SLP221
Conditions at: CYHM (HAMILTON AIRPORT, ON, CA) observed 0200 UTC 22 April 2019
Temperature: 8.0°C (46°F)
Dewpoint: 7.0°C (45°F) [RH = 93%]
Pressure (altimeter): 30.16 inches Hg (1021.4 mb)
[Sea-level pressure: 1022.1 mb]
Winds: from the SW (220 degrees) at 5 MPH (4 knots; 2.1 m/s)
Visibility: 15 miles (24 km)
Ceiling: 11000 feet AGL
Clouds: few clouds at 4000 feet AGL
broken clouds at 11000 feet AGL
Weather: no significant weather observed at this time

METAR text: CYHM 220100Z 17006KT 15SM OVC120 08/08 A3015 RMK AC8 SLP216
Conditions at: CYHM (HAMILTON AIRPORT, ON, CA) observed 0100 UTC 22 April 2019
Temperature: 8.0°C (46°F)
Dewpoint: 8.0°C (46°F) [RH = 100%]
Pressure (altimeter): 30.15 inches Hg (1021.1 mb)
[Sea-level pressure: 1021.6 mb]
Winds: from the S (170 degrees) at 7 MPH (6 knots; 3.1 m/s)
Visibility: 15 miles (24 km)
Ceiling: 12000 feet AGL
Clouds: overcast cloud deck at 12000 feet AGL
Weather: no significant weather observed at this time

METAR text: CYHM 220000Z 19006KT 15SM FEW040 BKN120 09/08 A3012 RMK SC1AC6 SLP206
Conditions at: CYHM (HAMILTON AIRPORT, ON, CA) observed 0000 UTC 22 April 2019
Temperature: 9.0°C (48°F)
Dewpoint: 8.0°C (46°F) [RH = 93%]
Pressure (altimeter): 30.12 inches Hg (1020.1 mb)
[Sea-level pressure: 1020.6 mb]
Winds: from the S (190 degrees) at 7 MPH (6 knots; 3.1 m/s)
Visibility: 15 miles (24 km)
Ceiling: 12000 feet AGL
Clouds: few clouds at 4000 feet AGL
broken clouds at 12000 feet AGL
Weather: no significant weather observed at this time

METAR text: CYHM 212300Z 19008KT 15SM BKN034 10/08 A3011 RMK SC7 SLP203
Conditions at: CYHM (HAMILTON AIRPORT, ON, CA) observed 2300 UTC 21 April 2019
Temperature: 10.0°C (50°F)
Dewpoint: 8.0°C (46°F) [RH = 87%]
Pressure (altimeter): 30.11 inches Hg (1019.7 mb)
[Sea-level pressure: 1020.3 mb]
Winds: from the S (190 degrees) at 9 MPH (8 knots; 4.1 m/s)
Visibility: 15 miles (24 km)
Ceiling: 3400 feet AGL
Clouds: broken clouds at 3400 feet AGL
Weather: no significant weather observed at this time

METAR text: CYHM 212200Z 18009KT 15SM FEW018 OVC029 11/09 A3010 RMK CF1SC8 CF TR SLP198
Conditions at: CYHM (HAMILTON AIRPORT, ON, CA) observed 2200 UTC 21 April 2019
Temperature: 11.0°C (52°F)
Dewpoint: 9.0°C (48°F) [RH = 87%]
Pressure (altimeter): 30.10 inches Hg (1019.4 mb)
[Sea-level pressure: 1019.8 mb]
Winds: from the S (180 degrees) at 10 MPH (9 knots; 4.6 m/s)
Visibility: 15 miles (24 km)
Ceiling: 2900 feet AGL
Clouds: few clouds at 1800 feet AGL
overcast cloud deck at 2900 feet AGL
Weather: no significant weather observed at this time

METAR text: CYHM 212100Z 18010KT 15SM FEW016 OVC024 10/09 A3008 RMK CF1SC7 SLP191
Conditions at: CYHM (HAMILTON AIRPORT, ON, CA) observed 2100 UTC 21 April 2019
Temperature: 10.0°C (50°F)
Dewpoint: 9.0°C (48°F) [RH = 93%]
Pressure (altimeter): 30.08 inches Hg (1018.7 mb)
[Sea-level pressure: 1019.1 mb]
Winds: from the S (180 degrees) at 12 MPH (10 knots; 5.1 m/s)
Visibility: 15 miles (24 km)
Ceiling: 2400 feet AGL
Clouds: few clouds at 1600 feet AGL
overcast cloud deck at 2400 feet AGL
Weather: no significant weather observed at this time

METAR text: CYHM 212000Z 18006KT 15SM OVC017 11/09 A3007 RMK SC8 CIG RAG SLP188
Conditions at: CYHM (HAMILTON AIRPORT, ON, CA) observed 2000 UTC 21 April 2019
Temperature: 11.0°C (52°F)
Dewpoint: 9.0°C (48°F) [RH = 87%]
Pressure (altimeter): 30.07 inches Hg (1018.4 mb)
[Sea-level pressure: 1018.8 mb]
Winds: from the S (180 degrees) at 7 MPH (6 knots; 3.1 m/s)
Visibility: 15 miles (24 km)
Ceiling: 1700 feet AGL
Clouds: overcast cloud deck at 1700 feet AGL
Weather: no significant weather observed at this time

METAR text: CYHM 211900Z 22007KT 15SM FEW017 OVC024 11/08 A3006 RMK SC2SC6 SLP184
Conditions at: CYHM (HAMILTON AIRPORT, ON, CA) observed 1900 UTC 21 April 2019
Temperature: 11.0°C (52°F)
Dewpoint: 8.0°C (46°F) [RH = 82%]
Pressure (altimeter): 30.06 inches Hg (1018.0 mb)
[Sea-level pressure: 1018.4 mb]
Winds: from the SW (220 degrees) at 8 MPH (7 knots; 3.6 m/s)
Visibility: 15 miles (24 km)
Ceiling: 2400 feet AGL
Clouds: few clouds at 1700 feet AGL
overcast cloud deck at 2400 feet AGL
Weather: no significant weather observed at this time

METAR text: CYHM 211800Z 22007KT 15SM SCT017 OVC025 10/08 A3004 RMK CF3SC5 SLP180
Conditions at: CYHM (HAMILTON AIRPORT, ON, CA) observed 1800 UTC 21 April 2019
Temperature: 10.0°C (50°F)
Dewpoint: 8.0°C (46°F) [RH = 87%]
Pressure (altimeter): 30.04 inches Hg (1017.4 mb)
[Sea-level pressure: 1018.0 mb]
Winds: from the SW (220 degrees) at 8 MPH (7 knots; 3.6 m/s)
Visibility: 15 miles (24 km)
Ceiling: 2500 feet AGL
Clouds: scattered clouds at 1700 feet AGL
overcast cloud deck at 2500 feet AGL
Weather: no significant weather observed at this time

METAR text: CYHM 211700Z 22008KT 10SM BKN008 OVC025 10/09 A3003 RMK SF5SC3 SLP176
Conditions at: CYHM (HAMILTON AIRPORT, ON, CA) observed 1700 UTC 21 April 2019
Temperature: 10.0°C (50°F)
Dewpoint: 9.0°C (48°F) [RH = 93%]
Pressure (altimeter): 30.03 inches Hg (1017.0 mb)
[Sea-level pressure: 1017.6 mb]
Winds: from the SW (220 degrees) at 9 MPH (8 knots; 4.1 m/s)
Visibility: 10 or more miles (16+ km)
Ceiling: 800 feet AGL
Clouds: broken clouds at 800 feet AGL
overcast cloud deck at 2500 feet AGL
Weather: no significant weather observed at this time

METAR text: CYHM 211600Z 21006KT 3SM BR BKN007 OVC017 09/08 A3002 RMK SF5SC3 SLP171
Conditions at: CYHM (HAMILTON AIRPORT, ON, CA) observed 1600 UTC 21 April 2019
Temperature: 9.0°C (48°F)
Dewpoint: 8.0°C (46°F) [RH = 93%]
Pressure (altimeter): 30.02 inches Hg (1016.7 mb)
[Sea-level pressure: 1017.1 mb]
Winds: from the SSW (210 degrees) at 7 MPH (6 knots; 3.1 m/s)
Visibility: 3 miles ( 5 km)
Ceiling: 700 feet AGL
Clouds: broken clouds at 700 feet AGL
overcast cloud deck at 1700 feet AGL
Weather: BR  (mist)

METAR text: CYHM 211538Z 20004KT 180V260 2 1/2SM BR SCT006 BKN013 OVC024 09/08 A3002 RMK SF3SF3SC2 SLP171
Conditions at: CYHM (HAMILTON AIRPORT, ON, CA) observed 1538 UTC 21 April 2019
Temperature: 9.0°C (48°F)
Dewpoint: 8.0°C (46°F) [RH = 93%]
Pressure (altimeter): 30.02 inches Hg (1016.7 mb)
[Sea-level pressure: 1017.1 mb]
Winds: from the SSW (200 degrees) at 5 MPH (4 knots; 2.1 m/s)
Visibility: 2.50 miles (4.02 km)
Ceiling: 1300 feet AGL
Clouds: scattered clouds at 600 feet AGL
broken clouds at 1300 feet AGL
overcast cloud deck at 2400 feet AGL
Weather: BR  (mist)

METAR text: CYHM 211500Z 23005KT 6SM BR OVC006 08/07 A3000 RMK SF8 SLP167
Conditions at: CYHM (HAMILTON AIRPORT, ON, CA) observed 1500 UTC 21 April 2019
Temperature: 8.0°C (46°F)
Dewpoint: 7.0°C (45°F) [RH = 93%]
Pressure (altimeter): 30.00 inches Hg (1016.0 mb)
[Sea-level pressure: 1016.7 mb]
Winds: from the SW (230 degrees) at 6 MPH (5 knots; 2.6 m/s)
Visibility: 6 miles (10 km)
Ceiling: 600 feet AGL
Clouds: overcast cloud deck at 600 feet AGL
Weather: BR  (mist)

METAR text: CYHM 211400Z 24005KT 4SM BR BKN007 OVC014 08/07 A2998 RMK SF6SC2 SLP159
Conditions at: CYHM (HAMILTON AIRPORT, ON, CA) observed 1400 UTC 21 April 2019
Temperature: 8.0°C (46°F)
Dewpoint: 7.0°C (45°F) [RH = 93%]
Pressure (altimeter): 29.98 inches Hg (1015.3 mb)
[Sea-level pressure: 1015.9 mb]
Winds: from the WSW (240 degrees) at 6 MPH (5 knots; 2.6 m/s)
Visibility: 4 miles ( 6 km)
Ceiling: 700 feet AGL
Clouds: broken clouds at 700 feet AGL
overcast cloud deck at 1400 feet AGL
Weather: BR  (mist)

METAR text: CYHM 211350Z 23004KT 4SM BR BKN006 OVC015 08/07 A2997 RMK SF5SF3 SLP157
Conditions at: CYHM (HAMILTON AIRPORT, ON, CA) observed 1350 UTC 21 April 2019
Temperature: 8.0°C (46°F)
Dewpoint: 7.0°C (45°F) [RH = 93%]
Pressure (altimeter): 29.97 inches Hg (1015.0 mb)
[Sea-level pressure: 1015.7 mb]
Winds: from the SW (230 degrees) at 5 MPH (4 knots; 2.1 m/s)
Visibility: 4 miles ( 6 km)
Ceiling: 600 feet AGL
Clouds: broken clouds at 600 feet AGL
overcast cloud deck at 1500 feet AGL
Weather: BR  (mist)

METAR text: CYHM 211300Z 25005KT 3SM BR OVC004 08/08 A2996 RMK FG2SF6 SLP151
Conditions at: CYHM (HAMILTON AIRPORT, ON, CA) observed 1300 UTC 21 April 2019
Temperature: 8.0°C (46°F)
Dewpoint: 8.0°C (46°F) [RH = 100%]
Pressure (altimeter): 29.96 inches Hg (1014.6 mb)
[Sea-level pressure: 1015.1 mb]
Winds: from the WSW (250 degrees) at 6 MPH (5 knots; 2.6 m/s)
Visibility: 3 miles ( 5 km)
Ceiling: 400 feet AGL
Clouds: overcast cloud deck at 400 feet AGL
Weather: BR  (mist)

METAR text: CYHM 211200Z 22005KT 2 1/2SM -DZ BR OVC003 07/07 A2993 RMK FG2ST6 PCPN VRY LGT SLP143
Conditions at: CYHM (HAMILTON AIRPORT, ON, CA) observed 1200 UTC 21 April 2019
Temperature: 7.0°C (45°F)
Dewpoint: 7.0°C (45°F) [RH = 100%]
Pressure (altimeter): 29.93 inches Hg (1013.6 mb)
[Sea-level pressure: 1014.3 mb]
Winds: from the SW (220 degrees) at 6 MPH (5 knots; 2.6 m/s)
Visibility: 2.50 miles (4.02 km)
Ceiling: 300 feet AGL
Clouds: overcast cloud deck at 300 feet AGL
Weather: -DZ BR  (light drizzle, mist)

METAR text: CYHM 211140Z 20005KT 1 1/2SM -DZ BR BKN002 OVC025 07/07 A2993 RMK FG3ST3SC2 SLP141
Conditions at: CYHM (HAMILTON AIRPORT, ON, CA) observed 1140 UTC 21 April 2019
Temperature: 7.0°C (45°F)
Dewpoint: 7.0°C (45°F) [RH = 100%]
Pressure (altimeter): 29.93 inches Hg (1013.6 mb)
[Sea-level pressure: 1014.1 mb]
Winds: from the SSW (200 degrees) at 6 MPH (5 knots; 2.6 m/s)
Visibility: 1.50 miles (2.41 km)
Ceiling: 200 feet AGL
Clouds: broken clouds at 200 feet AGL
overcast cloud deck at 2500 feet AGL
Weather: -DZ BR  (light drizzle, mist)

METAR text: CYHM 211100Z 18004KT 2SM -DZ BR BKN004 OVC028 07/07 A2991 RMK FG2ST4SC2 PCPN VRY LGT SLP135
Conditions at: CYHM (HAMILTON AIRPORT, ON, CA) observed 1100 UTC 21 April 2019
Temperature: 7.0°C (45°F)
Dewpoint: 7.0°C (45°F) [RH = 100%]
Pressure (altimeter): 29.91 inches Hg (1013.0 mb)
[Sea-level pressure: 1013.5 mb]
Winds: from the S (180 degrees) at 5 MPH (4 knots; 2.1 m/s)
Visibility: 2.00 miles (3.22 km)
Ceiling: 400 feet AGL
Clouds: broken clouds at 400 feet AGL
overcast cloud deck at 2800 feet AGL
Weather: -DZ BR  (light drizzle, mist)

METAR text: CYHM 211039Z 20003KT 3SM -DZ BR OVC004 07/07 A2989 RMK FG3ST5 SLP130
Conditions at: CYHM (HAMILTON AIRPORT, ON, CA) observed 1039 UTC 21 April 2019
Temperature: 7.0°C (45°F)
Dewpoint: 7.0°C (45°F) [RH = 100%]
Pressure (altimeter): 29.89 inches Hg (1012.3 mb)
[Sea-level pressure: 1013.0 mb]
Winds: from the SSW (200 degrees) at 3 MPH (3 knots; 1.5 m/s)
Visibility: 3 miles ( 5 km)
Ceiling: 400 feet AGL
Clouds: overcast cloud deck at 400 feet AGL
Weather: -DZ BR  (light drizzle, mist)

METAR text: CYHM 211000Z 24003KT 6SM -DZ BR BKN005 OVC012 07/07 A2987 RMK SF6SC2 SLP120
Conditions at: CYHM (HAMILTON AIRPORT, ON, CA) observed 1000 UTC 21 April 2019
Temperature: 7.0°C (45°F)
Dewpoint: 7.0°C (45°F) [RH = 100%]
Pressure (altimeter): 29.87 inches Hg (1011.6 mb)
[Sea-level pressure: 1012.0 mb]
Winds: from the WSW (240 degrees) at 3 MPH (3 knots; 1.5 m/s)
Visibility: 6 miles (10 km)
Ceiling: 500 feet AGL
Clouds: broken clouds at 500 feet AGL
overcast cloud deck at 1200 feet AGL
Weather: -DZ BR  (light drizzle, mist)

METAR text: CYHM 210946Z 25004KT 5SM BR BKN004 OVC011 07/07 A2985 RMK SF6SC2 SLP116
Conditions at: CYHM (HAMILTON AIRPORT, ON, CA) observed 0946 UTC 21 April 2019
Temperature: 7.0°C (45°F)
Dewpoint: 7.0°C (45°F) [RH = 100%]
Pressure (altimeter): 29.85 inches Hg (1010.9 mb)
[Sea-level pressure: 1011.6 mb]
Winds: from the WSW (250 degrees) at 5 MPH (4 knots; 2.1 m/s)
Visibility: 5 miles ( 8 km)
Ceiling: 400 feet AGL
Clouds: broken clouds at 400 feet AGL
overcast cloud deck at 1100 feet AGL
Weather: BR  (mist)

METAR text: CYHM 210928Z 26004KT 5SM BR SCT004 OVC009 07/07 A2984 RMK SF3SC5 SLP113
Conditions at: CYHM (HAMILTON AIRPORT, ON, CA) observed 0928 UTC 21 April 2019
Temperature: 7.0°C (45°F)
Dewpoint: 7.0°C (45°F) [RH = 100%]
Pressure (altimeter): 29.84 inches Hg (1010.6 mb)
[Sea-level pressure: 1011.3 mb]
Winds: from the W (260 degrees) at 5 MPH (4 knots; 2.1 m/s)
Visibility: 5 miles ( 8 km)
Ceiling: 900 feet AGL
Clouds: scattered clouds at 400 feet AGL
overcast cloud deck at 900 feet AGL
Weather: BR  (mist)

METAR text: CYHM 210919Z 25005KT 5SM -DZ BR BKN003 OVC010 07/07 A2984 RMK SF7SC1 SLP111
Conditions at: CYHM (HAMILTON AIRPORT, ON, CA) observed 0919 UTC 21 April 2019
Temperature: 7.0°C (45°F)
Dewpoint: 7.0°C (45°F) [RH = 100%]
Pressure (altimeter): 29.84 inches Hg (1010.6 mb)
[Sea-level pressure: 1011.1 mb]
Winds: from the WSW (250 degrees) at 6 MPH (5 knots; 2.6 m/s)
Visibility: 5 miles ( 8 km)
Ceiling: 300 feet AGL
Clouds: broken clouds at 300 feet AGL
overcast cloud deck at 1000 feet AGL
Weather: -DZ BR  (light drizzle, mist)

METAR text: CYHM 210900Z 27006KT 2SM -DZ BR OVC003 07/07 A2983 RMK FG1SF7 SLP108
Conditions at: CYHM (HAMILTON AIRPORT, ON, CA) observed 0900 UTC 21 April 2019
Temperature: 7.0°C (45°F)
Dewpoint: 7.0°C (45°F) [RH = 100%]
Pressure (altimeter): 29.83 inches Hg (1010.2 mb)
[Sea-level pressure: 1010.8 mb]
Winds: from the W (270 degrees) at 7 MPH (6 knots; 3.1 m/s)
Visibility: 2.00 miles (3.22 km)
Ceiling: 300 feet AGL
Clouds: overcast cloud deck at 300 feet AGL
Weather: -DZ BR  (light drizzle, mist)

METAR text: CYHM 210800Z 26005KT 1 3/4SM -DZ BR OVC002 06/06 A2983 RMK FG2SF6 SLP107
Conditions at: CYHM (HAMILTON AIRPORT, ON, CA) observed 0800 UTC 21 April 2019
Temperature: 6.0°C (43°F)
Dewpoint: 6.0°C (43°F) [RH = 100%]
Pressure (altimeter): 29.83 inches Hg (1010.2 mb)
[Sea-level pressure: 1010.7 mb]
Winds: from the W (260 degrees) at 6 MPH (5 knots; 2.6 m/s)
Visibility: 1.75 miles (2.82 km)
Ceiling: 200 feet AGL
Clouds: overcast cloud deck at 200 feet AGL
Weather: -DZ BR  (light drizzle, mist)

METAR text: CYHM 210700Z 24006KT 2 1/4SM -DZ BR OVC002 06/06 A2980 RMK SF8 SLP098
Conditions at: CYHM (HAMILTON AIRPORT, ON, CA) observed 0700 UTC 21 April 2019
Temperature: 6.0°C (43°F)
Dewpoint: 6.0°C (43°F) [RH = 100%]
Pressure (altimeter): 29.80 inches Hg (1009.2 mb)
[Sea-level pressure: 1009.8 mb]
Winds: from the WSW (240 degrees) at 7 MPH (6 knots; 3.1 m/s)
Visibility: 2.25 miles (3.62 km)
Ceiling: 200 feet AGL
Clouds: overcast cloud deck at 200 feet AGL
Weather: -DZ BR  (light drizzle, mist)

METAR text: CYHM 210600Z 22002KT 1 1/2SM -DZ BR BKN003 OVC025 06/06 A2978 RMK FG2SF5SC1 VIS VRB 1 - 2 SLP092
Conditions at: CYHM (HAMILTON AIRPORT, ON, CA) observed 0600 UTC 21 April 2019
Temperature: 6.0°C (43°F)
Dewpoint: 6.0°C (43°F) [RH = 100%]
Pressure (altimeter): 29.78 inches Hg (1008.5 mb)
[Sea-level pressure: 1009.2 mb]
Winds: from the SW (220 degrees) at 2 MPH (2 knots; 1.0 m/s)
Visibility: 1.50 miles (2.41 km)
Ceiling: 300 feet AGL
Clouds: broken clouds at 300 feet AGL
overcast cloud deck at 2500 feet AGL
Weather: -DZ BR  (light drizzle, mist)

METAR text: CYHM 210504Z 22005KT 120V230 1 1/2SM -DZ BR BKN002 OVC017 06/06 A2978 RMK FG2SF4SC2 VIS VRB 1 - 2 SLP093
Conditions at: CYHM (HAMILTON AIRPORT, ON, CA) observed 0504 UTC 21 April 2019
Temperature: 6.0°C (43°F)
Dewpoint: 6.0°C (43°F) [RH = 100%]
Pressure (altimeter): 29.78 inches Hg (1008.5 mb)
[Sea-level pressure: 1009.3 mb]
Winds: from the SW (220 degrees) at 6 MPH (5 knots; 2.6 m/s)
Visibility: 1.50 miles (2.41 km)
Ceiling: 200 feet AGL
Clouds: broken clouds at 200 feet AGL
overcast cloud deck at 1700 feet AGL
Weather: -DZ BR  (light drizzle, mist)

METAR text: CYHM 210500Z 17003KT 100V190 1 1/2SM -DZ BR SCT003 OVC018 06/06 A2978 RMK FG2SF2SC4 VIS VRB 1 - 2 SLP093
Conditions at: CYHM (HAMILTON AIRPORT, ON, CA) observed 0500 UTC 21 April 2019
Temperature: 6.0°C (43°F)
Dewpoint: 6.0°C (43°F) [RH = 100%]
Pressure (altimeter): 29.78 inches Hg (1008.5 mb)
[Sea-level pressure: 1009.3 mb]
Winds: from the S (170 degrees) at 3 MPH (3 knots; 1.5 m/s)
Visibility: 1.50 miles (2.41 km)
Ceiling: 1800 feet AGL
Clouds: scattered clouds at 300 feet AGL
overcast cloud deck at 1800 feet AGL
Weather: -DZ BR  (light drizzle, mist)

METAR text: CYHM 210421Z 20002KT 1 1/2SM -DZ BR SCT006 OVC017 06/06 A2977 RMK FG2SF2SC4 VIS VRB 1 - 2 SLP090
Conditions at: CYHM (HAMILTON AIRPORT, ON, CA) observed 0421 UTC 21 April 2019
Temperature: 6.0°C (43°F)
Dewpoint: 6.0°C (43°F) [RH = 100%]
Pressure (altimeter): 29.77 inches Hg (1008.2 mb)
[Sea-level pressure: 1009.0 mb]
Winds: from the SSW (200 degrees) at 2 MPH (2 knots; 1.0 m/s)
Visibility: 1.50 miles (2.41 km)
Ceiling: 1700 feet AGL
Clouds: scattered clouds at 600 feet AGL
overcast cloud deck at 1700 feet AGL
Weather: -DZ BR  (light drizzle, mist)

METAR text: CYHM 210400Z 00000KT 1 1/2SM -DZ BR BKN005 OVC015 06/06 A2977 RMK FG2SF4SC2 VIS VRB 1 - 2 SLP090
Conditions at: CYHM (HAMILTON AIRPORT, ON, CA) observed 0400 UTC 21 April 2019
Temperature: 6.0°C (43°F)
Dewpoint: 6.0°C (43°F) [RH = 100%]
Pressure (altimeter): 29.77 inches Hg (1008.2 mb)
[Sea-level pressure: 1009.0 mb]
Winds: calm
Visibility: 1.50 miles (2.41 km)
Ceiling: 500 feet AGL
Clouds: broken clouds at 500 feet AGL
overcast cloud deck at 1500 feet AGL
Weather: -DZ BR  (light drizzle, mist)

METAR text: CYHM 210320Z 33004KT 2SM -DZ BR OVC008 06/06 A2975 RMK FG1SC7 SLP083
Conditions at: CYHM (HAMILTON AIRPORT, ON, CA) observed 0320 UTC 21 April 2019
Temperature: 6.0°C (43°F)
Dewpoint: 6.0°C (43°F) [RH = 100%]
Pressure (altimeter): 29.75 inches Hg (1007.5 mb)
[Sea-level pressure: 1008.3 mb]
Winds: from the NNW (330 degrees) at 5 MPH (4 knots; 2.1 m/s)
Visibility: 2.00 miles (3.22 km)
Ceiling: 800 feet AGL
Clouds: overcast cloud deck at 800 feet AGL
Weather: -DZ BR  (light drizzle, mist)

METAR text: CYHM 210300Z 28002KT 2SM -DZ BR OVC010 06/06 A2975 RMK FG1SC7 SLP082
Conditions at: CYHM (HAMILTON AIRPORT, ON, CA) observed 0300 UTC 21 April 2019
Temperature: 6.0°C (43°F)
Dewpoint: 6.0°C (43°F) [RH = 100%]
Pressure (altimeter): 29.75 inches Hg (1007.5 mb)
[Sea-level pressure: 1008.2 mb]
Winds: from the W (280 degrees) at 2 MPH (2 knots; 1.0 m/s)
Visibility: 2.00 miles (3.22 km)
Ceiling: 1000 feet AGL
Clouds: overcast cloud deck at 1000 feet AGL
Weather: -DZ BR  (light drizzle, mist)

Forecast for: CYHM (HAMILTON AIRPORT, ON, CA)
Text: TAF CYHM 221139Z 2212/2312 VRB03KT P6SM BKN120
Forecast period: 1200 to 1300 UTC 22 April 2019
Forecast type: FROM: standard forecast or significant change
Winds: variable direction winds at 3 MPH (3 knots; 1.5 m/s)
Visibility: 6 or more miles 10+ km)
Ceiling: 12000 feet AGL
Clouds: broken clouds at 12000 feet AGL
Weather: no significant weather forecast for this period
Text: BECMG 2213/2215 08005KT
Forecast period: 1300 to 1700 UTC 22 April 2019
Forecast type: BECOMING: Conditions expected to become as follows by 1500 UTC 22 April 2019
Winds: from the E (80 degrees) at 6 MPH (5 knots; 2.6 m/s)
Visibility: 6 or more miles 10+ km)
Ceiling: 12000 feet AGL
Clouds: broken clouds at 12000 feet AGL
Weather: no significant weather forecast for this period
Text: FM221700 05008KT P6SM SCT100
Forecast period: 1700 UTC 22 April 2019 to 1200 UTC 23 April 2019
Forecast type: FROM: standard forecast or significant change
Winds: from the NE (50 degrees) at 9 MPH (8 knots; 4.1 m/s)
Visibility: 6 or more miles 10+ km)
Ceiling: at least 12,000 feet AGL
Clouds: scattered clouds at 10000 feet AGL
Weather: no significant weather forecast for this period
Text: PROB30 2304/2312 21/2SM BR RMK NXT FCST BY 221800Z
Forecast period: 0400 to 1200 UTC 23 April 2019
Forecast type: PROBABLE: 30 percent likelihood of the following during this time
Visibility: 2.50 miles (4.02 km)
Ceiling: unknown
Clouds: missing
Weather: BR  (mist)